createdAt,value
2018-09-28T00:01:59.348Z,3.37
2018-09-28T00:04:27.206Z,3.20
2018-09-28T00:06:55.186Z,3.23
2018-09-28T00:09:23.123Z,2.50
2018-09-28T00:11:51.026Z,2.87
2018-09-28T00:14:18.899Z,2.77
2018-09-28T00:16:46.793Z,3.37
2018-09-28T00:19:14.755Z,3.03
2018-09-28T00:21:42.614Z,2.90
2018-09-28T00:24:10.595Z,2.90
2018-09-28T00:26:38.482Z,3.13
2018-09-28T00:29:06.495Z,2.70
2018-09-28T00:31:34.382Z,3.30
2018-09-28T00:34:02.251Z,3.10
2018-09-28T00:36:31.635Z,3.37
2018-09-28T00:38:59.501Z,4.00
2018-09-28T00:41:27.375Z,3.43
2018-09-28T00:43:55.239Z,3.60
2018-09-28T00:46:23.120Z,3.77
2018-09-28T00:48:50.987Z,3.17
2018-09-28T00:54:05.708Z,3.80
2018-09-28T00:56:33.561Z,3.90
2018-09-28T00:59:01.474Z,3.43
2018-09-28T01:01:29.415Z,3.37
2018-09-28T01:03:57.277Z,3.27
2018-09-28T01:06:25.558Z,3.70
2018-09-28T01:08:53.879Z,3.70
2018-09-28T01:11:21.714Z,3.90
2018-09-28T01:13:49.579Z,3.30
2018-09-28T01:16:17.455Z,3.60
2018-09-28T01:18:45.331Z,3.43
2018-09-28T01:21:13.306Z,3.80
2018-09-28T01:23:41.157Z,4.10
2018-09-28T01:26:09.050Z,4.40
2018-09-28T01:28:36.906Z,4.03
2018-09-28T01:31:04.782Z,3.87
2018-09-28T01:33:32.646Z,3.70
2018-09-28T01:36:00.512Z,3.87
2018-09-28T01:38:30.244Z,3.73
2018-09-28T01:41:01.799Z,3.53
2018-09-28T01:43:29.791Z,4.07
2018-09-28T01:45:57.659Z,3.70
2018-09-28T01:48:25.531Z,4.17
2018-09-28T01:50:53.407Z,4.03
2018-09-28T01:53:21.286Z,4.60
2018-09-28T01:55:49.175Z,4.10
2018-09-28T01:58:17.055Z,4.40
2018-09-28T02:00:45.043Z,4.23
2018-09-28T02:03:12.999Z,3.93
2018-09-28T02:05:40.868Z,3.77
2018-09-28T02:08:08.784Z,3.50
2018-09-28T02:10:36.655Z,4.33
2018-09-28T02:13:04.524Z,4.27
2018-09-28T02:15:32.433Z,3.83
2018-09-28T02:18:00.399Z,3.20
2018-09-28T02:20:28.287Z,3.97
2018-09-28T02:22:56.216Z,3.73
2018-09-28T02:25:24.101Z,4.77
2018-09-28T02:27:51.975Z,4.73
2018-09-28T02:30:19.847Z,4.57
2018-09-28T02:32:47.808Z,4.00
2018-09-28T02:35:15.716Z,4.23
2018-09-28T02:37:43.607Z,3.90
2018-09-28T02:40:11.510Z,4.13
2018-09-28T02:42:39.387Z,4.17
2018-09-28T02:45:07.390Z,3.97
2018-09-28T02:47:35.382Z,4.30
2018-09-28T02:50:03.446Z,4.40
2018-09-28T02:52:31.384Z,3.63
2018-09-28T02:55:00.046Z,4.27
2018-09-28T02:57:28.065Z,4.37
2018-09-28T02:59:56.004Z,4.30
2018-09-28T03:02:23.903Z,4.17
2018-09-28T03:04:51.764Z,4.33
2018-09-28T03:07:19.678Z,3.87
2018-09-28T03:09:47.559Z,4.57
2018-09-28T03:12:15.440Z,3.97
2018-09-28T03:14:43.394Z,4.30
2018-09-28T03:17:11.277Z,3.47
2018-09-28T03:19:39.170Z,5.00
2018-09-28T03:22:07.112Z,3.57
2018-09-28T03:24:35.054Z,3.30
2018-09-28T03:27:02.939Z,4.43
2018-09-28T03:29:30.823Z,4.30
2018-09-28T03:31:58.766Z,4.50
2018-09-28T03:34:26.690Z,3.77
2018-09-28T03:36:54.691Z,3.83
2018-09-28T03:39:22.566Z,4.10
2018-09-28T03:41:50.442Z,3.80
2018-09-28T03:44:18.413Z,3.87
2018-09-28T03:46:46.382Z,3.90
2018-09-28T03:49:14.271Z,5.53
2018-09-28T03:51:44.100Z,4.30
2018-09-28T03:54:12.040Z,3.73
2018-09-28T03:56:39.911Z,4.83
2018-09-28T03:59:07.855Z,4.23
2018-09-28T04:01:35.851Z,4.07
2018-09-28T04:04:03.748Z,3.83
2018-09-28T04:06:31.696Z,3.73
2018-09-28T04:09:01.038Z,4.23
2018-09-28T04:11:29.525Z,3.67
2018-09-28T04:13:58.495Z,3.80
2018-09-28T04:16:26.345Z,4.20
2018-09-28T04:18:54.239Z,4.63
2018-09-28T04:21:22.255Z,3.53
2018-09-28T04:23:50.131Z,3.93
2018-09-28T04:26:18.004Z,4.70
2018-09-28T04:28:45.883Z,10.70
2018-09-28T04:31:13.751Z,3.93
2018-09-28T04:33:41.688Z,4.13
2018-09-28T04:36:09.566Z,3.83
2018-09-28T04:38:37.919Z,4.13
2018-09-28T04:41:05.819Z,4.30
2018-09-28T04:43:33.714Z,4.17
2018-09-28T04:46:01.637Z,4.17
2018-09-28T04:48:29.623Z,4.30
2018-09-28T04:50:57.510Z,3.73
2018-09-28T04:53:26.512Z,5.00
2018-09-28T04:55:54.403Z,5.00
2018-09-28T04:58:22.296Z,4.40
2018-09-28T05:00:50.274Z,4.80
2018-09-28T05:03:18.155Z,4.47
2018-09-28T05:05:46.035Z,3.90
2018-09-28T05:08:13.903Z,4.27
2018-09-28T05:10:41.825Z,14.63
2018-09-28T05:13:10.013Z,4.90
2018-09-28T05:15:38.166Z,4.10
2018-09-28T05:18:06.474Z,4.60
2018-09-28T05:20:34.350Z,4.50
2018-09-28T05:23:02.319Z,4.60
2018-09-28T05:25:30.217Z,4.53
2018-09-28T05:27:58.090Z,4.40
2018-09-28T05:30:26.044Z,4.80
2018-09-28T05:32:54.061Z,8.43
2018-09-28T05:35:21.872Z,5.20
2018-09-28T05:37:49.819Z,4.77
2018-09-28T05:40:17.847Z,5.00
2018-09-28T05:42:45.763Z,4.13
2018-09-28T05:45:15.095Z,4.77
2018-09-28T05:47:42.996Z,4.43
2018-09-28T05:50:11.035Z,4.00
2018-09-28T05:52:38.937Z,3.80
2018-09-28T05:55:06.842Z,4.77
2018-09-28T05:57:34.915Z,4.47
2018-09-28T06:00:08.339Z,3.80
2018-09-28T06:02:41.739Z,4.17
2018-09-28T06:05:15.164Z,4.80
2018-09-28T06:07:43.315Z,4.37
2018-09-28T06:10:11.253Z,4.53
2018-09-28T06:12:39.190Z,4.33
2018-09-28T06:15:07.099Z,3.93
2018-09-28T06:17:36.484Z,3.90
2018-09-28T06:20:04.751Z,3.93
2018-09-28T06:22:32.750Z,4.30
2018-09-28T06:25:00.685Z,4.03
2018-09-28T06:27:28.646Z,4.80
2018-09-28T06:29:56.572Z,4.13
2018-09-28T06:32:24.513Z,3.47
2018-09-28T06:34:52.448Z,4.17
2018-09-28T06:37:20.455Z,4.00
2018-09-28T06:39:48.340Z,4.40
2018-09-28T06:42:16.268Z,3.57
2018-09-28T06:44:44.171Z,3.60
2018-09-28T06:47:12.043Z,4.63
2018-09-28T06:49:40.992Z,4.07
2018-09-28T06:52:08.983Z,4.27
2018-09-28T06:54:36.868Z,3.57
2018-09-28T06:57:04.743Z,4.40
2018-09-28T06:59:32.662Z,5.60
2018-09-28T07:02:00.544Z,4.17
2018-09-28T07:04:28.430Z,3.93
2018-09-28T07:06:56.315Z,4.40
2018-09-28T07:09:24.227Z,4.20
2018-09-28T07:11:52.140Z,4.10
2018-09-28T07:14:19.989Z,4.30
2018-09-28T07:16:47.985Z,4.47
2018-09-28T07:19:15.766Z,4.60
2018-09-28T07:21:43.647Z,13.17
2018-09-28T07:24:11.541Z,6.23
2018-09-28T07:26:39.468Z,5.20
2018-09-28T07:29:07.293Z,5.10
2018-09-28T07:31:35.162Z,4.80
2018-09-28T07:34:03.070Z,5.17
2018-09-28T07:36:31.016Z,4.90
2018-09-28T07:38:58.859Z,4.23
2018-09-28T07:41:26.719Z,5.07
2018-09-28T07:46:40.742Z,5.23
2018-09-28T07:49:08.706Z,4.80
2018-09-28T07:51:37.497Z,4.67
2018-09-28T07:54:05.391Z,4.40
2018-09-28T07:56:33.255Z,4.47
2018-09-28T07:59:01.157Z,5.40
2018-09-28T08:01:29.111Z,5.37
2018-09-28T08:03:57.091Z,4.60
2018-09-28T08:06:24.846Z,4.60
2018-09-28T08:08:52.724Z,5.10
2018-09-28T08:11:20.586Z,4.73
2018-09-28T08:13:48.451Z,5.70
2018-09-28T08:16:16.326Z,5.47
2018-09-28T08:18:44.211Z,5.47
2018-09-28T08:21:12.079Z,4.80
2018-09-28T08:23:39.953Z,5.03
2018-09-28T08:26:07.830Z,5.40
2018-09-28T08:28:35.706Z,6.80
2018-09-28T08:31:03.578Z,6.47
2018-09-28T08:33:31.434Z,5.60
2018-09-28T08:35:59.299Z,5.43
2018-09-28T08:38:27.150Z,5.20
2018-09-28T08:40:55.047Z,4.90
2018-09-28T08:43:22.982Z,5.43
2018-09-28T08:45:51.043Z,6.40
2018-09-28T08:48:18.915Z,6.17
2018-09-28T08:50:46.775Z,5.50
2018-09-28T08:53:14.638Z,6.10
2018-09-28T08:55:42.511Z,5.50
2018-09-28T08:58:10.378Z,6.23
2018-09-28T09:00:38.246Z,7.20
2018-09-28T09:03:06.114Z,6.07
2018-09-28T09:05:33.982Z,6.57
2018-09-28T09:08:01.874Z,6.57
2018-09-28T09:10:29.718Z,6.10
2018-09-28T09:12:57.617Z,7.40
2018-09-28T09:15:25.479Z,6.70
2018-09-28T09:17:53.379Z,6.77
2018-09-28T09:20:21.211Z,7.33
2018-09-28T09:22:49.071Z,7.10
2018-09-28T09:25:16.948Z,6.50
2018-09-28T09:27:51.342Z,7.07
2018-09-28T09:30:19.207Z,7.90
2018-09-28T09:32:47.071Z,7.33
2018-09-28T09:35:14.931Z,7.17
2018-09-28T09:37:42.787Z,7.10
2018-09-28T09:40:10.688Z,7.13
2018-09-28T09:42:38.612Z,7.23
2018-09-28T09:45:06.460Z,7.00
2018-09-28T09:47:34.346Z,7.10
2018-09-28T09:50:02.210Z,6.97
2018-09-28T09:52:30.110Z,6.87
2018-09-28T09:54:58.127Z,6.97
2018-09-28T09:57:25.996Z,7.80
2018-09-28T09:59:53.851Z,7.97
2018-09-28T10:02:27.339Z,7.30
2018-09-28T10:04:55.214Z,7.70
2018-09-28T10:07:23.106Z,8.13
2018-09-28T10:09:51.003Z,8.93
2018-09-28T10:12:18.937Z,6.97
2018-09-28T10:14:46.733Z,7.27
2018-09-28T10:17:15.111Z,7.87
2018-09-28T10:19:42.975Z,8.50
2018-09-28T10:22:10.807Z,8.50
2018-09-28T10:24:38.691Z,12.23
2018-09-28T10:27:06.602Z,7.73
2018-09-28T10:29:34.414Z,8.57
2018-09-28T10:32:02.283Z,7.90
2018-09-28T10:34:30.159Z,8.03
2018-09-28T10:36:58.067Z,7.30
2018-09-28T10:39:25.982Z,8.30
2018-09-28T10:41:53.843Z,9.37
2018-09-28T10:44:21.711Z,8.80
2018-09-28T10:46:49.574Z,8.10
2018-09-28T10:49:17.547Z,8.30
2018-09-28T10:51:45.480Z,11.07
2018-09-28T10:54:13.274Z,10.73
2018-09-28T10:56:41.252Z,9.33
2018-09-28T10:59:09.122Z,9.23
2018-09-28T11:01:37.150Z,8.23
2018-09-28T11:04:05.075Z,7.13
2018-09-28T11:06:32.919Z,5.40
2018-09-28T11:09:00.824Z,8.23
2018-09-28T11:11:28.653Z,6.13
2018-09-28T11:13:56.506Z,7.13
2018-09-28T11:16:24.411Z,6.80
2018-09-28T11:18:52.310Z,5.67
2018-09-28T11:21:20.207Z,4.50
2018-09-28T11:23:47.994Z,5.93
2018-09-28T11:26:15.893Z,4.60
2018-09-28T11:28:43.723Z,4.03
2018-09-28T11:31:11.594Z,3.70
2018-09-28T11:33:39.520Z,4.07
2018-09-28T11:36:07.375Z,5.17
2018-09-28T11:38:35.283Z,4.60
2018-09-28T11:41:03.161Z,5.33
2018-09-28T11:43:31.059Z,4.73
2018-09-28T11:45:58.910Z,4.90
2018-09-28T11:48:26.778Z,4.77
2018-09-28T11:50:54.722Z,4.07
2018-09-28T11:53:22.947Z,5.00
2018-09-28T11:55:50.879Z,4.03
2018-09-28T11:58:18.747Z,3.40
2018-09-28T12:00:46.619Z,3.67
2018-09-28T12:03:14.542Z,3.47
2018-09-28T12:05:42.366Z,3.60
2018-09-28T12:08:10.247Z,3.27
2018-09-28T12:10:38.099Z,3.10
2018-09-28T12:13:12.376Z,3.30
2018-09-28T12:15:40.713Z,3.00
2018-09-28T12:18:08.625Z,3.07
2018-09-28T12:20:36.524Z,3.00
2018-09-28T12:23:04.391Z,2.23
2018-09-28T12:25:32.263Z,2.00
2018-09-28T12:28:00.142Z,3.20
2018-09-28T12:30:28.076Z,2.33
2018-09-28T12:32:55.855Z,2.90
2018-09-28T12:35:23.755Z,4.13
2018-09-28T12:37:51.584Z,4.00
2018-09-28T12:40:19.457Z,3.83
2018-09-28T12:42:47.362Z,4.63
2018-09-28T12:45:15.272Z,4.47
2018-09-28T12:47:43.071Z,4.13
2018-09-28T12:50:11.003Z,4.70
2018-09-28T12:52:38.823Z,4.27
2018-09-28T12:55:06.748Z,5.57
2018-09-28T12:57:34.647Z,5.90
2018-09-28T13:00:02.519Z,6.40
2018-09-28T13:02:30.395Z,6.57
2018-09-28T13:04:58.263Z,6.60
2018-09-28T13:07:26.127Z,6.73
2018-09-28T13:09:53.983Z,5.33
2018-09-28T13:12:21.895Z,5.93
2018-09-28T13:14:49.827Z,5.17
2018-09-28T13:17:17.626Z,5.73
2018-09-28T13:19:45.501Z,5.53
2018-09-28T13:22:13.372Z,9.80
2018-09-28T13:24:41.341Z,6.10
2018-09-28T13:27:09.135Z,6.10
2018-09-28T13:29:36.998Z,6.87
2018-09-28T13:32:04.939Z,8.50
2018-09-28T13:34:32.823Z,8.93
2018-09-28T13:37:00.690Z,9.03
2018-09-28T13:39:28.571Z,9.97
2018-09-28T13:41:56.451Z,9.77
2018-09-28T13:44:24.391Z,9.77
2018-09-28T13:46:52.312Z,9.37
2018-09-28T13:49:20.348Z,8.87
2018-09-28T13:51:48.260Z,8.80
2018-09-28T13:54:16.224Z,8.90
2018-09-28T13:56:44.085Z,8.77
2018-09-28T13:59:11.983Z,8.80
2018-09-28T14:01:39.978Z,8.87
2018-09-28T14:04:07.869Z,8.60
2018-09-28T14:06:35.843Z,8.80
2018-09-28T14:09:04.712Z,7.93
2018-09-28T14:11:32.587Z,8.80
2018-09-28T14:14:00.466Z,9.30
2018-09-28T14:16:28.452Z,8.93
2018-09-28T14:18:56.279Z,8.23
2018-09-28T14:21:24.156Z,8.17
2018-09-28T14:23:52.204Z,7.73
2018-09-28T14:26:20.103Z,6.47
2018-09-28T14:28:48.012Z,6.67
2018-09-28T14:34:02.431Z,5.07
2018-09-28T14:36:30.378Z,5.53
2018-09-28T14:38:58.219Z,5.57
2018-09-28T14:41:26.086Z,5.70
2018-09-28T14:43:53.968Z,4.67
2018-09-28T14:46:21.896Z,5.80
2018-09-28T14:48:49.802Z,4.07
2018-09-28T14:51:20.576Z,4.17
2018-09-28T14:53:48.526Z,3.50
2018-09-28T14:56:16.435Z,3.43
2018-09-28T14:58:44.337Z,3.87
2018-09-28T15:01:12.400Z,3.63
2018-09-28T15:03:40.171Z,3.47
2018-09-28T15:06:08.491Z,2.90
2018-09-28T15:08:36.478Z,2.60
2018-09-28T15:11:04.373Z,2.70
2018-09-28T15:13:33.199Z,2.67
2018-09-28T15:16:01.059Z,2.57
2018-09-28T15:18:29.040Z,2.57
2018-09-28T15:20:57.388Z,2.33
2018-09-28T15:23:25.276Z,2.50
2018-09-28T15:25:53.386Z,3.37
2018-09-28T15:28:21.343Z,2.40
2018-09-28T15:30:49.438Z,3.40
2018-09-28T15:33:17.326Z,2.63
2018-09-28T15:35:45.715Z,2.63
2018-09-28T15:38:13.579Z,2.70
2018-09-28T15:40:41.588Z,2.90
2018-09-28T15:43:09.455Z,4.53
2018-09-28T15:45:37.340Z,2.70
2018-09-28T15:48:05.296Z,2.40
2018-09-28T15:50:33.237Z,2.40
2018-09-28T15:53:01.190Z,2.40
2018-09-28T15:55:29.119Z,2.53
2018-09-28T15:57:57.127Z,2.63
2018-09-28T16:00:25.042Z,2.03
2018-09-28T16:02:53.142Z,1.97
2018-09-28T16:05:21.039Z,2.83
2018-09-28T16:07:48.947Z,2.17
2018-09-28T16:10:16.945Z,1.60
2018-09-28T16:12:44.838Z,1.37
2018-09-28T16:15:12.731Z,1.70
2018-09-28T16:17:40.647Z,1.43
2018-09-28T16:20:08.519Z,1.77
2018-09-28T16:22:36.433Z,1.53
2018-09-28T16:25:04.460Z,1.97
2018-09-28T16:27:32.335Z,2.13
2018-09-28T16:30:00.254Z,1.37
2018-09-28T16:32:28.167Z,1.73
2018-09-28T16:34:56.057Z,1.60
2018-09-28T16:37:23.979Z,1.47
2018-09-28T16:39:51.922Z,1.90
2018-09-28T16:42:19.854Z,1.53
2018-09-28T16:44:47.777Z,2.13
2018-09-28T16:47:15.635Z,1.53
2018-09-28T16:49:43.490Z,1.50
2018-09-28T16:52:13.099Z,1.50
2018-09-28T16:54:41.034Z,1.60
2018-09-28T16:57:08.932Z,3.60
2018-09-28T16:59:36.834Z,1.40
2018-09-28T17:02:04.811Z,1.30
2018-09-28T17:04:32.687Z,1.80
2018-09-28T17:07:00.565Z,1.50
2018-09-28T17:09:28.559Z,1.80
2018-09-28T17:11:56.526Z,1.60
2018-09-28T17:14:24.443Z,1.90
2018-09-28T17:16:52.333Z,1.57
2018-09-28T17:19:20.228Z,1.43
2018-09-28T17:21:48.172Z,1.60
2018-09-28T17:24:16.044Z,2.33
2018-09-28T17:26:43.903Z,1.80
2018-09-28T17:29:11.795Z,1.20
2018-09-28T17:31:39.666Z,2.73
2018-09-28T17:34:07.539Z,1.57
2018-09-28T17:36:35.473Z,1.47
2018-09-28T17:39:03.531Z,1.80
2018-09-28T17:41:31.583Z,5.53
2018-09-28T17:43:59.466Z,1.63
2018-09-28T17:46:27.375Z,1.53
2018-09-28T17:48:55.350Z,2.10
2018-09-28T17:51:23.300Z,1.40
2018-09-28T17:53:51.180Z,1.70
2018-09-28T17:56:19.064Z,1.70
2018-09-28T17:58:46.943Z,1.73
2018-09-28T18:01:14.799Z,2.43
2018-09-28T18:03:42.689Z,2.00
2018-09-28T18:06:10.636Z,3.10
2018-09-28T18:08:38.503Z,2.70
2018-09-28T18:11:06.448Z,2.70
2018-09-28T18:13:34.400Z,2.57
2018-09-28T18:16:02.288Z,2.80
2018-09-28T18:18:30.179Z,2.83
2018-09-28T18:20:58.035Z,2.33
2018-09-28T18:23:25.922Z,2.50
2018-09-28T18:25:53.798Z,2.53
2018-09-28T18:28:23.366Z,3.40
2018-09-28T18:30:51.329Z,2.10
2018-09-28T18:33:19.239Z,1.57
2018-09-28T18:35:47.170Z,2.50
2018-09-28T18:38:15.017Z,2.33
2018-09-28T18:40:42.935Z,2.13
2018-09-28T18:43:10.846Z,2.03
2018-09-28T18:45:38.724Z,2.40
2018-09-28T18:48:06.616Z,2.87
2018-09-28T18:50:34.510Z,2.13
2018-09-28T18:53:02.420Z,2.73
2018-09-28T18:55:30.294Z,2.60
2018-09-28T18:57:58.264Z,2.50
2018-09-28T19:00:26.241Z,2.13
2018-09-28T19:02:54.123Z,2.57
2018-09-28T19:05:22.045Z,2.40
2018-09-28T19:07:49.919Z,2.73
2018-09-28T19:10:17.791Z,2.67
2018-09-28T19:12:46.228Z,2.60
2018-09-28T19:15:14.088Z,2.50
2018-09-28T19:17:41.975Z,2.57
2018-09-28T19:20:09.869Z,2.67
2018-09-28T19:22:37.729Z,2.40
2018-09-28T19:25:05.727Z,2.40
2018-09-28T19:27:33.631Z,3.50
2018-09-28T19:30:01.561Z,2.63
2018-09-28T19:32:29.543Z,2.97
2018-09-28T19:34:57.431Z,2.10
2018-09-28T19:37:25.368Z,2.37
2018-09-28T19:39:53.250Z,2.20
2018-09-28T19:42:21.238Z,2.30
2018-09-28T19:44:49.107Z,2.33
2018-09-28T19:47:18.082Z,2.63
2018-09-28T19:49:45.955Z,2.20
2018-09-28T19:52:13.839Z,2.80
2018-09-28T19:54:41.763Z,2.50
2018-09-28T19:57:09.743Z,2.87
2018-09-28T19:59:37.702Z,2.73
2018-09-28T20:02:05.632Z,2.60
2018-09-28T20:04:33.515Z,2.67
2018-09-28T20:07:01.388Z,2.37
2018-09-28T20:09:29.327Z,2.40
2018-09-28T20:11:57.300Z,3.87
2018-09-28T20:14:25.294Z,2.27
2018-09-28T20:16:53.286Z,2.30
2018-09-28T20:19:21.256Z,2.50
2018-09-28T20:21:49.131Z,2.80
2018-09-28T20:24:17.078Z,2.63
2018-09-28T20:26:44.990Z,2.20
2018-09-28T20:29:12.903Z,2.13
2018-09-28T20:31:40.831Z,2.90
2018-09-28T20:34:08.694Z,1.97
2018-09-28T20:36:36.633Z,2.20
2018-09-28T20:39:07.494Z,1.83
2018-09-28T20:41:35.617Z,1.80
2018-09-28T20:44:03.512Z,1.93
2018-09-28T20:46:31.423Z,1.83
2018-09-28T20:48:59.348Z,1.80
2018-09-28T20:51:29.102Z,2.23
2018-09-28T20:53:57.110Z,2.00
2018-09-28T20:56:25.004Z,2.40
2018-09-28T20:58:52.865Z,2.17
2018-09-28T21:01:20.779Z,2.30
2018-09-28T21:03:48.695Z,1.73
2018-09-28T21:06:16.774Z,1.70
2018-09-28T21:08:45.767Z,2.33
2018-09-28T21:11:13.629Z,2.03
2018-09-28T21:13:41.591Z,1.63
2018-09-28T21:16:09.480Z,1.50
2018-09-28T21:18:38.427Z,1.73
2018-09-28T21:21:06.319Z,1.50
2018-09-28T21:23:34.305Z,1.37
2018-09-28T21:26:02.258Z,1.50
2018-09-28T21:28:30.294Z,1.50
2018-09-28T21:30:58.203Z,1.87
2018-09-28T21:33:26.238Z,2.93
2018-09-28T21:35:54.139Z,1.60
2018-09-28T21:38:21.990Z,1.40
2018-09-28T21:40:49.860Z,2.47
2018-09-28T21:43:18.009Z,1.20
2018-09-28T21:45:45.888Z,2.07
2018-09-28T21:48:13.748Z,1.40
2018-09-28T21:50:41.602Z,1.47
2018-09-28T21:53:09.488Z,1.60
2018-09-28T21:55:37.348Z,1.10
2018-09-28T21:58:05.243Z,1.60
2018-09-28T22:00:37.675Z,1.00
2018-09-28T22:03:05.577Z,1.53
2018-09-28T22:05:33.479Z,1.73
2018-09-28T22:08:01.561Z,1.27
2018-09-28T22:10:29.490Z,2.33
2018-09-28T22:12:57.613Z,1.70
2018-09-28T22:15:25.511Z,1.27
2018-09-28T22:17:53.435Z,2.07
2018-09-28T22:20:22.299Z,1.40
2018-09-28T22:22:50.426Z,1.20
2018-09-28T22:25:19.335Z,1.30
2018-09-28T22:27:47.206Z,1.47
2018-09-28T22:30:15.212Z,1.57
2018-09-28T22:35:29.959Z,2.37
2018-09-28T22:37:58.854Z,1.77
2018-09-28T22:40:26.769Z,1.20
2018-09-28T22:42:54.666Z,1.60
2018-09-28T22:45:22.729Z,1.40
2018-09-28T22:47:50.703Z,1.07
2018-09-28T22:50:18.695Z,1.30
2018-09-28T22:52:46.581Z,1.10
2018-09-28T22:55:14.522Z,1.00
2018-09-28T22:57:42.518Z,0.97
2018-09-28T23:00:10.407Z,1.93
2018-09-28T23:02:40.117Z,1.17
2018-09-28T23:05:08.045Z,1.47
2018-09-28T23:07:36.003Z,0.90
2018-09-28T23:10:04.026Z,1.57
2018-09-28T23:12:31.889Z,1.53
2018-09-28T23:14:59.759Z,1.20
2018-09-28T23:17:27.639Z,0.90
2018-09-28T23:19:55.498Z,1.93
2018-09-28T23:22:23.407Z,1.30
2018-09-28T23:24:51.379Z,1.20
2018-09-28T23:27:19.355Z,1.10
2018-09-28T23:29:47.330Z,1.30
2018-09-28T23:32:15.180Z,1.57
2018-09-28T23:34:43.057Z,1.10
2018-09-28T23:37:11.059Z,1.77
2018-09-28T23:39:38.987Z,0.93
2018-09-28T23:42:06.899Z,0.97
2018-09-28T23:44:34.855Z,1.20
2018-09-28T23:47:02.723Z,1.30
2018-09-28T23:49:30.602Z,1.30
2018-09-28T23:51:59.065Z,1.43
2018-09-28T23:54:27.028Z,1.30
2018-09-28T23:56:54.899Z,1.27
2018-09-28T23:59:22.844Z,1.30
